createdAt,value
2022-09-28T00:00:23.570Z,9.57
2022-09-28T00:01:23.606Z,9.57
2022-09-28T00:02:23.666Z,9.58
2022-09-28T00:03:46.620Z,9.60
2022-09-28T00:04:23.568Z,9.61
2022-09-28T00:05:25.535Z,9.63
2022-09-28T00:06:23.459Z,9.60
2022-09-28T00:07:45.566Z,9.61
2022-09-28T00:08:23.676Z,9.63
2022-09-28T00:09:23.415Z,9.61
2022-09-28T00:10:23.408Z,9.61
2022-09-28T00:11:23.430Z,9.61
2022-09-28T00:12:23.364Z,9.60
2022-09-28T00:13:23.400Z,9.61
2022-09-28T00:14:23.366Z,9.64
2022-09-28T00:15:23.350Z,9.64
2022-09-28T00:16:23.384Z,9.61
2022-09-28T00:17:23.307Z,9.61
2022-09-28T00:18:23.297Z,9.60
2022-09-28T00:19:23.312Z,9.60
2022-09-28T00:20:23.314Z,9.53
2022-09-28T00:21:23.260Z,9.53
2022-09-28T00:22:23.273Z,9.50
2022-09-28T00:23:23.264Z,9.49
2022-09-28T00:24:27.513Z,9.46
2022-09-28T00:25:23.231Z,9.43
2022-09-28T00:26:23.169Z,9.42
2022-09-28T00:27:23.196Z,9.38
2022-09-28T00:28:23.249Z,9.32
2022-09-28T00:29:23.198Z,9.30
2022-09-28T00:30:23.176Z,9.25
2022-09-28T00:31:23.269Z,9.24
2022-09-28T00:32:23.124Z,9.21
2022-09-28T00:33:23.074Z,9.20
2022-09-28T00:34:23.105Z,9.16
2022-09-28T00:35:23.063Z,9.18
2022-09-28T00:36:23.045Z,9.16
2022-09-28T00:37:23.137Z,9.13
2022-09-28T00:38:23.004Z,9.13
2022-09-28T00:39:23.009Z,9.09
2022-09-28T00:40:23.107Z,9.09
2022-09-28T00:41:23.001Z,9.12
2022-09-28T00:42:22.999Z,9.09
2022-09-28T00:43:22.948Z,9.09
2022-09-28T00:44:23.029Z,9.10
2022-09-28T00:45:22.933Z,9.06
2022-09-28T00:46:22.956Z,9.05
2022-09-28T00:47:22.982Z,9.05
2022-09-28T00:48:22.882Z,9.05
2022-09-28T00:49:22.906Z,9.04
2022-09-28T00:50:22.844Z,9.05
2022-09-28T00:51:22.831Z,9.05
2022-09-28T00:52:22.817Z,9.05
2022-09-28T00:53:22.870Z,9.05
2022-09-28T00:54:22.814Z,9.05
2022-09-28T00:55:22.854Z,9.09
2022-09-28T00:56:22.763Z,9.05
2022-09-28T00:57:22.780Z,9.06
2022-09-28T00:58:22.740Z,9.06
2022-09-28T00:59:44.532Z,9.06
2022-09-28T01:00:24.771Z,9.09
2022-09-28T01:01:22.815Z,9.10
2022-09-28T01:02:25.938Z,9.12
2022-09-28T01:03:22.708Z,9.13
2022-09-28T01:04:25.010Z,9.12
2022-09-28T01:05:22.690Z,9.12
2022-09-28T01:06:22.639Z,9.12
2022-09-28T01:07:22.641Z,9.13
2022-09-28T01:08:22.611Z,9.15
2022-09-28T01:09:22.588Z,9.13
2022-09-28T01:10:22.573Z,9.18
2022-09-28T01:11:22.598Z,9.12
2022-09-28T01:12:24.790Z,9.13
2022-09-28T01:13:22.543Z,9.13
2022-09-28T01:14:45.482Z,9.12
2022-09-28T01:15:22.539Z,9.13
2022-09-28T01:16:22.589Z,9.12
2022-09-28T01:17:23.641Z,9.13
2022-09-28T01:18:22.571Z,9.12
2022-09-28T01:20:38.141Z,9.12
2022-09-28T01:21:39.141Z,9.09
2022-09-28T01:24:23.221Z,9.09
2022-09-28T01:25:24.147Z,9.04
2022-09-28T01:26:24.168Z,9.04
2022-09-28T01:27:24.185Z,9.02
2022-09-28T01:28:24.158Z,8.99
2022-09-28T01:29:24.137Z,9.01
2022-09-28T01:30:24.081Z,8.97
2022-09-28T01:31:24.107Z,8.97
2022-09-28T01:32:24.101Z,8.97
2022-09-28T01:33:24.193Z,9.01
2022-09-28T01:34:24.067Z,8.96
2022-09-28T01:35:24.069Z,8.97
2022-09-28T01:36:23.996Z,8.97
2022-09-28T01:37:24.025Z,8.96
2022-09-28T01:38:23.969Z,8.97
2022-09-28T01:39:23.973Z,8.94
2022-09-28T01:40:24.020Z,8.93
2022-09-28T01:41:23.932Z,8.94
2022-09-28T01:42:23.953Z,8.91
2022-09-28T01:43:23.918Z,8.91
2022-09-28T01:44:23.900Z,8.88
2022-09-28T01:45:24.021Z,8.88
2022-09-28T01:46:23.902Z,8.87
2022-09-28T01:47:24.050Z,8.87
2022-09-28T01:48:23.890Z,8.88
2022-09-28T01:49:23.863Z,8.86
2022-09-28T01:50:23.860Z,8.84
2022-09-28T01:51:23.821Z,8.86
2022-09-28T01:52:32.840Z,8.87
2022-09-28T01:53:45.855Z,8.88
2022-09-28T01:54:23.763Z,8.87
2022-09-28T01:55:23.819Z,8.86
2022-09-28T01:56:25.615Z,8.86
2022-09-28T01:57:23.729Z,8.87
2022-09-28T02:09:36.056Z,8.87
2022-09-28T02:10:17.805Z,8.87
2022-09-28T02:14:06.797Z,8.87
2022-09-28T02:15:28.846Z,8.83
2022-09-28T02:16:07.866Z,8.83
2022-09-28T02:17:07.752Z,8.83
2022-09-28T02:18:07.791Z,8.81
2022-09-28T02:19:07.730Z,8.83
2022-09-28T02:20:07.751Z,8.78
2022-09-28T02:21:07.709Z,8.81
2022-09-28T02:22:07.716Z,8.81
2022-09-28T02:23:07.678Z,8.83
2022-09-28T02:24:07.641Z,8.81
2022-09-28T02:25:07.667Z,8.83
2022-09-28T02:26:07.638Z,8.81
2022-09-28T02:27:07.613Z,8.79
2022-09-28T02:28:07.604Z,8.79
2022-09-28T02:29:07.592Z,8.83
2022-09-28T02:30:07.632Z,8.84
2022-09-28T02:31:07.610Z,8.81
2022-09-28T02:32:07.621Z,8.83
2022-09-28T02:33:07.592Z,8.79
2022-09-28T02:34:07.542Z,8.81
2022-09-28T02:35:07.509Z,8.79
2022-09-28T02:36:07.570Z,8.79
2022-09-28T02:37:07.492Z,8.76
2022-09-28T02:38:07.479Z,8.79
2022-09-28T02:39:07.459Z,8.81
2022-09-28T02:40:07.467Z,8.79
2022-09-28T02:41:07.465Z,8.79
2022-09-28T02:42:07.522Z,8.79
2022-09-28T02:43:07.429Z,8.78
2022-09-28T02:44:07.408Z,8.79
2022-09-28T02:45:07.396Z,8.78
2022-09-28T02:46:07.531Z,8.79
2022-09-28T02:47:07.385Z,8.79
2022-09-28T02:48:07.483Z,8.76
2022-09-28T02:49:22.594Z,8.76
2022-09-28T02:50:07.337Z,8.75
2022-09-28T02:51:07.316Z,8.76
2022-09-28T03:09:29.555Z,8.71
2022-09-28T03:10:14.184Z,8.71
2022-09-28T03:12:26.635Z,8.73
2022-09-28T03:13:27.654Z,8.71
2022-09-28T03:14:27.573Z,8.73
2022-09-28T03:15:27.576Z,8.76
2022-09-28T03:17:47.596Z,8.73
2022-09-28T03:18:41.280Z,8.75
2022-09-28T03:19:41.248Z,8.76
2022-09-28T03:24:32.024Z,8.79
2022-09-28T03:25:31.303Z,8.76
2022-09-28T03:26:31.250Z,8.76
2022-09-28T03:27:31.261Z,8.78
2022-09-28T03:28:31.308Z,8.79
2022-09-28T03:38:19.477Z,8.78
2022-09-28T03:39:20.501Z,8.78
2022-09-28T03:40:20.453Z,8.78
2022-09-28T03:41:41.556Z,8.79
2022-09-28T03:42:20.490Z,8.78
2022-09-28T03:43:50.033Z,8.81
2022-09-28T03:44:20.512Z,8.81
2022-09-28T03:46:32.795Z,8.83
2022-09-28T03:47:33.771Z,8.79
2022-09-28T03:48:52.053Z,8.83
2022-09-28T03:58:29.186Z,8.83
2022-09-28T03:59:49.901Z,8.83
2022-09-28T04:00:28.847Z,8.81
2022-09-28T04:05:00.340Z,8.83
2022-09-28T04:06:01.323Z,8.81
2022-09-28T04:07:01.316Z,8.83
2022-09-28T04:11:23.054Z,8.86
2022-09-28T04:12:03.331Z,8.81
2022-09-28T04:12:51.306Z,8.83
2022-09-28T04:13:51.289Z,8.84
2022-09-28T04:14:51.305Z,8.81
2022-09-28T04:15:51.296Z,8.83
2022-09-28T04:16:51.313Z,8.83
2022-09-28T04:18:12.239Z,8.83
2022-09-28T04:18:51.234Z,8.81
2022-09-28T04:19:51.199Z,8.81
2022-09-28T04:21:12.179Z,8.81
2022-09-28T04:21:51.167Z,8.78
2022-09-28T04:22:51.168Z,8.79
2022-09-28T04:23:51.153Z,8.78
2022-09-28T04:29:15.961Z,8.81
2022-09-28T04:30:04.078Z,8.79
2022-09-28T04:31:01.190Z,8.81
2022-09-28T04:32:01.175Z,8.81
2022-09-28T04:33:01.140Z,8.84
2022-09-28T04:34:01.110Z,8.81
2022-09-28T04:35:01.100Z,8.81
2022-09-28T04:36:01.115Z,8.81
2022-09-28T04:37:01.075Z,8.81
2022-09-28T04:38:01.053Z,8.81
2022-09-28T04:39:01.078Z,8.81
2022-09-28T04:40:01.066Z,8.81
2022-09-28T04:41:01.143Z,8.81
2022-09-28T04:42:01.043Z,8.83
2022-09-28T04:43:00.976Z,8.84
2022-09-28T04:44:00.963Z,8.81
2022-09-28T04:45:01.009Z,8.83
2022-09-28T04:46:00.978Z,8.81
2022-09-28T04:47:04.967Z,8.83
2022-09-28T04:48:00.949Z,8.81
2022-09-28T04:49:03.993Z,8.79
2022-09-28T04:50:06.941Z,8.79
2022-09-28T04:51:21.899Z,8.79
2022-09-28T04:54:19.867Z,8.78
2022-09-28T04:55:20.846Z,8.81
2022-09-28T04:58:52.701Z,8.76
2022-09-28T04:59:52.685Z,8.76
2022-09-28T05:00:51.101Z,8.73
2022-09-28T05:01:51.138Z,8.75
2022-09-28T05:02:51.015Z,8.76
2022-09-28T05:03:51.065Z,8.72
2022-09-28T05:04:54.282Z,8.75
2022-09-28T05:05:50.980Z,8.75
2022-09-28T05:06:51.010Z,8.72
2022-09-28T05:07:51.021Z,8.75
2022-09-28T05:08:51.010Z,8.73
2022-09-28T05:09:51.028Z,8.73
2022-09-28T05:12:16.796Z,8.75
2022-09-28T05:13:17.739Z,8.73
2022-09-28T05:14:38.714Z,8.75
2022-09-28T05:15:17.726Z,8.76
2022-09-28T05:16:17.737Z,8.72
2022-09-28T05:17:17.693Z,8.71
2022-09-28T05:18:17.668Z,8.73
2022-09-28T05:19:17.843Z,8.69
2022-09-28T05:20:17.632Z,8.69
2022-09-28T05:21:17.685Z,8.68
2022-09-28T05:22:17.693Z,8.66
2022-09-28T05:23:17.595Z,8.68
2022-09-28T05:24:17.611Z,8.68
2022-09-28T05:25:17.655Z,8.65
2022-09-28T05:26:17.544Z,8.63
2022-09-28T05:27:17.565Z,8.62
2022-09-28T05:28:17.784Z,8.62
2022-09-28T05:29:17.633Z,8.62
2022-09-28T05:30:17.495Z,8.60
2022-09-28T05:31:17.580Z,8.60
2022-09-28T05:32:17.490Z,8.60
2022-09-28T05:33:19.851Z,8.58
2022-09-28T05:34:38.438Z,8.58
2022-09-28T05:35:17.611Z,8.60
2022-09-28T05:36:17.394Z,8.58
2022-09-28T05:37:17.391Z,8.57
2022-09-28T05:38:17.381Z,8.57
2022-09-28T05:39:17.515Z,8.58
2022-09-28T05:40:17.478Z,8.57
2022-09-28T05:41:17.351Z,8.58
2022-09-28T05:42:20.392Z,8.60
2022-09-28T05:43:17.340Z,8.62
2022-09-28T05:44:17.510Z,8.65
2022-09-28T05:45:17.304Z,8.63
2022-09-28T05:46:17.365Z,8.66
2022-09-28T05:47:39.400Z,8.66
2022-09-28T05:48:17.262Z,8.71
2022-09-28T05:49:17.255Z,8.71
2022-09-28T05:50:39.225Z,8.69
2022-09-28T05:51:17.192Z,8.69
2022-09-28T05:52:38.215Z,8.72
2022-09-28T05:53:17.162Z,8.72
2022-09-28T05:54:17.382Z,8.73
2022-09-28T05:55:17.170Z,8.71
2022-09-28T05:56:17.131Z,8.69
2022-09-28T05:57:17.126Z,8.69
2022-09-28T05:58:17.119Z,8.71
2022-09-28T05:59:17.134Z,8.71
2022-09-28T06:00:17.080Z,8.71
2022-09-28T06:01:17.117Z,8.71
2022-09-28T06:02:17.119Z,8.71
2022-09-28T06:03:17.048Z,8.69
2022-09-28T06:04:17.178Z,8.68
2022-09-28T06:05:17.045Z,8.72
2022-09-28T06:06:17.043Z,8.69
2022-09-28T06:07:17.120Z,8.71
2022-09-28T06:08:16.982Z,8.69
2022-09-28T06:09:17.007Z,8.71
2022-09-28T06:10:16.993Z,8.72
2022-09-28T06:11:16.962Z,8.75
2022-09-28T06:12:16.944Z,8.76
2022-09-28T06:13:16.982Z,8.81
2022-09-28T06:14:16.982Z,8.83
2022-09-28T06:15:16.889Z,8.87
2022-09-28T06:16:16.906Z,8.90
2022-09-28T06:17:16.885Z,8.96
2022-09-28T06:18:16.898Z,9.01
2022-09-28T06:19:16.807Z,9.04
2022-09-28T06:20:16.832Z,9.10
2022-09-28T06:21:16.830Z,9.18
2022-09-28T06:22:16.820Z,9.25
2022-09-28T06:23:16.795Z,9.30
2022-09-28T06:24:16.925Z,9.31
2022-09-28T06:25:16.786Z,9.38
2022-09-28T06:26:16.731Z,9.42
2022-09-28T06:27:16.732Z,9.46
2022-09-28T06:28:16.743Z,9.46
2022-09-28T06:29:19.472Z,9.42
2022-09-28T06:30:16.675Z,9.42
2022-09-28T06:31:16.698Z,9.42
2022-09-28T06:32:16.645Z,9.39
2022-09-28T06:33:16.647Z,9.40
2022-09-28T06:34:17.153Z,9.42
2022-09-28T06:35:16.608Z,9.40
2022-09-28T06:36:16.634Z,9.39
2022-09-28T06:37:17.595Z,9.40
2022-09-28T06:38:16.589Z,9.40
2022-09-28T06:39:18.685Z,9.40
2022-09-28T06:40:16.585Z,9.42
2022-09-28T06:41:16.542Z,9.40
2022-09-28T06:42:16.534Z,9.40
2022-09-28T06:43:16.499Z,9.39
2022-09-28T06:44:16.628Z,9.38
2022-09-28T06:45:16.496Z,9.38
2022-09-28T06:46:16.570Z,9.35
2022-09-28T06:47:19.526Z,9.38
2022-09-28T06:48:16.411Z,9.38
2022-09-28T06:49:19.491Z,9.38
2022-09-28T06:50:17.425Z,9.34
2022-09-28T06:51:16.391Z,9.34
2022-09-28T06:52:16.368Z,9.35
2022-09-28T06:53:16.509Z,9.32
2022-09-28T06:54:16.461Z,9.31
2022-09-28T06:55:16.347Z,9.31
2022-09-28T06:56:19.613Z,9.32
2022-09-28T06:57:16.322Z,9.32
2022-09-28T06:58:16.297Z,9.35
2022-09-28T06:59:16.259Z,9.35
2022-09-28T07:00:16.257Z,9.35
2022-09-28T07:01:16.320Z,9.40
2022-09-28T07:02:16.379Z,9.40
2022-09-28T07:03:37.244Z,9.43
2022-09-28T07:04:16.325Z,9.42
2022-09-28T07:05:16.232Z,9.42
2022-09-28T07:06:16.306Z,9.40
2022-09-28T07:07:16.223Z,9.45
2022-09-28T07:08:16.220Z,9.43
2022-09-28T07:09:30.430Z,9.45
2022-09-28T07:10:16.125Z,9.43
2022-09-28T07:11:16.174Z,9.46
2022-09-28T07:12:16.216Z,9.48
2022-09-28T07:13:40.704Z,9.49
2022-09-28T07:14:30.606Z,9.52
2022-09-28T07:15:16.060Z,9.53
2022-09-28T07:16:16.117Z,9.57
2022-09-28T07:17:16.105Z,9.60
2022-09-28T07:18:16.057Z,9.61
2022-09-28T07:19:16.043Z,9.66
2022-09-28T07:20:19.185Z,9.67
2022-09-28T07:21:25.419Z,9.68
2022-09-28T07:22:18.859Z,9.71
2022-09-28T07:23:19.269Z,9.76
2022-09-28T07:24:15.933Z,9.81
2022-09-28T07:25:15.960Z,9.82
2022-09-28T07:26:18.582Z,9.91
2022-09-28T07:27:15.988Z,9.97
2022-09-28T07:28:15.890Z,10.01
2022-09-28T07:29:15.987Z,10.06
2022-09-28T07:30:15.905Z,10.10
2022-09-28T07:31:15.956Z,10.04
2022-09-28T07:32:36.818Z,10.06
2022-09-28T07:33:16.652Z,10.09
2022-09-28T07:34:15.872Z,10.07
2022-09-28T07:35:15.847Z,10.09
2022-09-28T07:36:15.790Z,10.09
2022-09-28T07:37:15.757Z,10.14
2022-09-28T07:38:15.733Z,10.14
2022-09-28T07:39:15.754Z,10.17
2022-09-28T07:40:15.765Z,10.17
2022-09-28T07:41:15.741Z,10.07
2022-09-28T07:42:15.700Z,10.10
2022-09-28T07:43:15.706Z,10.12
2022-09-28T07:44:15.682Z,10.14
2022-09-28T07:45:15.724Z,10.15
2022-09-28T07:46:15.785Z,10.18
2022-09-28T07:47:15.659Z,10.19
2022-09-28T07:48:15.662Z,10.21
2022-09-28T07:49:15.629Z,10.25
2022-09-28T07:50:15.703Z,10.28
2022-09-28T07:51:15.599Z,10.32
2022-09-28T07:52:15.565Z,10.34
2022-09-28T07:53:15.539Z,10.34
2022-09-28T07:54:15.520Z,10.42
2022-09-28T07:55:15.699Z,10.42
2022-09-28T07:56:15.553Z,10.33
2022-09-28T07:57:15.606Z,10.36
2022-09-28T07:58:15.481Z,10.25
2022-09-28T07:59:15.515Z,10.15
2022-09-28T08:00:15.441Z,10.15
2022-09-28T08:01:15.488Z,10.14
2022-09-28T08:02:15.452Z,10.12
2022-09-28T08:03:15.442Z,10.14
2022-09-28T08:04:15.464Z,10.14
2022-09-28T08:05:15.453Z,10.14
2022-09-28T08:06:15.378Z,10.14
2022-09-28T08:07:15.385Z,10.17
2022-09-28T08:08:15.396Z,10.19
2022-09-28T08:09:15.367Z,10.21
2022-09-28T08:10:15.291Z,10.24
2022-09-28T08:11:15.314Z,10.26
2022-09-28T08:12:15.429Z,10.34
2022-09-28T08:13:15.503Z,10.36
2022-09-28T08:14:15.309Z,10.40
2022-09-28T08:15:15.337Z,10.36
2022-09-28T08:16:15.406Z,10.34
2022-09-28T08:17:15.244Z,10.25
2022-09-28T08:18:15.289Z,10.28
2022-09-28T08:19:16.268Z,10.32
2022-09-28T08:20:15.169Z,10.40
2022-09-28T08:21:15.204Z,10.51
2022-09-28T08:22:15.213Z,10.56
2022-09-28T08:23:15.212Z,10.58
2022-09-28T08:24:15.152Z,10.65
2022-09-28T08:25:15.134Z,10.77
2022-09-28T08:26:15.774Z,10.84
2022-09-28T08:27:15.120Z,10.99
2022-09-28T08:28:15.150Z,11.09
2022-09-28T08:29:15.038Z,11.20
2022-09-28T08:30:15.057Z,11.29
2022-09-28T08:31:15.084Z,11.36
2022-09-28T08:32:15.018Z,11.44
2022-09-28T08:33:15.011Z,11.54
2022-09-28T08:34:15.091Z,11.54
2022-09-28T08:35:14.985Z,11.57
2022-09-28T08:36:14.944Z,11.62
2022-09-28T08:37:14.937Z,11.65
2022-09-28T08:38:14.918Z,11.64
2022-09-28T08:39:14.936Z,11.68
2022-09-28T08:40:14.895Z,11.70
2022-09-28T08:41:14.892Z,11.68
2022-09-28T08:42:14.862Z,11.64
2022-09-28T08:43:14.869Z,11.65
2022-09-28T08:44:14.921Z,11.67
2022-09-28T08:45:14.848Z,11.64
2022-09-28T08:46:15.273Z,11.56
2022-09-28T08:47:14.825Z,11.56
2022-09-28T08:48:14.782Z,11.53
2022-09-28T08:49:31.610Z,11.54
2022-09-28T08:50:14.777Z,11.59
2022-09-28T08:51:14.788Z,11.56
2022-09-28T08:52:14.734Z,11.50
2022-09-28T08:53:14.715Z,11.56
2022-09-28T08:54:18.022Z,11.61
2022-09-28T08:55:14.700Z,11.65
2022-09-28T08:56:14.681Z,11.65
2022-09-28T08:57:14.670Z,11.61
2022-09-28T08:58:14.659Z,11.64
2022-09-28T08:59:14.682Z,11.67
2022-09-28T09:00:17.747Z,11.71
2022-09-28T09:01:14.729Z,11.74
2022-09-28T09:02:35.651Z,11.74
2022-09-28T09:03:14.617Z,11.64
2022-09-28T09:04:14.702Z,11.71
2022-09-28T09:05:14.545Z,11.78
2022-09-28T09:06:18.322Z,11.87
2022-09-28T09:07:14.596Z,11.97
2022-09-28T09:08:14.521Z,12.02
2022-09-28T09:09:14.492Z,12.05
2022-09-28T09:10:14.489Z,11.97
2022-09-28T09:11:14.500Z,12.01
2022-09-28T09:12:14.610Z,12.06
2022-09-28T09:13:14.434Z,12.09
2022-09-28T09:20:28.665Z,12.37
2022-09-28T09:21:26.547Z,12.19
2022-09-28T09:22:23.536Z,12.13
2022-09-28T09:23:23.450Z,12.05
2022-09-28T09:24:23.425Z,11.94
2022-09-28T09:25:23.424Z,11.87
2022-09-28T09:26:25.913Z,11.85
2022-09-28T09:27:23.373Z,11.85
2022-09-28T09:28:23.371Z,11.86
2022-09-28T09:29:23.471Z,11.87
2022-09-28T09:30:23.412Z,11.85
2022-09-28T09:31:23.336Z,11.82
2022-09-28T09:32:23.300Z,11.86
2022-09-28T09:33:23.311Z,11.87
2022-09-28T09:34:23.283Z,11.94
2022-09-28T09:35:27.940Z,12.01
2022-09-28T09:36:23.264Z,12.06
2022-09-28T09:37:23.257Z,12.13
2022-09-28T09:38:23.238Z,12.23
2022-09-28T09:39:23.240Z,12.26
2022-09-28T09:40:23.307Z,12.26
2022-09-28T09:41:23.207Z,12.27
2022-09-28T09:42:23.206Z,12.27
2022-09-28T09:43:25.743Z,12.30
2022-09-28T09:44:23.184Z,12.37
2022-09-28T09:45:23.166Z,12.31
2022-09-28T09:46:23.170Z,12.33
2022-09-28T09:47:23.114Z,12.42
2022-09-28T09:48:23.112Z,12.49
2022-09-28T09:49:23.086Z,12.51
2022-09-28T09:50:23.068Z,12.56
2022-09-28T09:51:23.096Z,12.54
2022-09-28T09:52:23.091Z,12.49
2022-09-28T09:53:23.044Z,12.44
2022-09-28T09:54:23.018Z,12.34
2022-09-28T09:55:27.394Z,12.24
2022-09-28T09:56:22.989Z,12.06
2022-09-28T09:57:22.984Z,11.94
2022-09-28T09:58:22.948Z,11.94
2022-09-28T09:59:22.977Z,12.01
2022-09-28T10:00:23.039Z,12.13
2022-09-28T10:01:22.996Z,12.20
2022-09-28T10:02:22.987Z,12.26
2022-09-28T10:03:22.926Z,12.21
2022-09-28T10:04:22.879Z,12.20
2022-09-28T10:05:22.859Z,12.19
2022-09-28T10:06:22.881Z,12.19
2022-09-28T10:07:22.841Z,12.21
2022-09-28T10:08:22.907Z,12.29
2022-09-28T10:09:22.848Z,12.21
2022-09-28T10:10:22.840Z,12.21
2022-09-28T10:11:22.789Z,12.21
2022-09-28T10:12:22.764Z,12.24
2022-09-28T10:13:22.798Z,12.29
2022-09-28T10:14:22.785Z,12.37
2022-09-28T10:15:22.812Z,12.39
2022-09-28T10:16:22.771Z,12.42
2022-09-28T10:17:22.750Z,12.51
2022-09-28T10:18:22.741Z,12.63
2022-09-28T10:19:22.754Z,12.78
2022-09-28T10:20:22.669Z,12.95
2022-09-28T10:21:22.796Z,13.14
2022-09-28T10:22:22.682Z,13.27
2022-09-28T10:23:22.721Z,13.40
2022-09-28T10:24:22.600Z,13.44
2022-09-28T10:25:22.622Z,13.41
2022-09-28T10:26:24.916Z,13.47
2022-09-28T10:27:22.575Z,13.49
2022-09-28T10:28:22.569Z,13.43
2022-09-28T10:29:22.572Z,13.44
2022-09-28T10:30:22.525Z,13.47
2022-09-28T10:31:22.528Z,13.54
2022-09-28T10:32:22.499Z,13.51
2022-09-28T10:33:22.501Z,13.56
2022-09-28T10:34:22.475Z,13.58
2022-09-28T10:35:22.473Z,13.56
2022-09-28T10:36:22.551Z,13.54
2022-09-28T10:37:22.445Z,13.55
2022-09-28T10:38:22.422Z,13.58
2022-09-28T10:39:22.404Z,13.62
2022-09-28T10:40:22.437Z,13.67
2022-09-28T10:41:22.424Z,13.69
2022-09-28T10:42:22.373Z,13.65
2022-09-28T10:43:22.366Z,13.69
2022-09-28T10:44:22.391Z,13.74
2022-09-28T10:45:22.325Z,13.74
2022-09-28T10:46:22.408Z,13.79
2022-09-28T10:47:22.300Z,13.74
2022-09-28T10:48:22.264Z,13.81
2022-09-28T10:49:22.305Z,13.77
2022-09-28T10:50:22.263Z,13.79
2022-09-28T10:51:22.262Z,13.88
2022-09-28T10:52:22.249Z,13.94
2022-09-28T10:53:22.225Z,13.91
2022-09-28T10:54:22.210Z,13.92
2022-09-28T10:55:22.184Z,13.89
2022-09-28T10:56:22.193Z,13.88
2022-09-28T10:57:22.579Z,13.89
2022-09-28T10:58:22.777Z,13.77
2022-09-28T10:59:22.165Z,13.58
2022-09-28T11:00:22.114Z,13.54
2022-09-28T11:01:22.174Z,13.61
2022-09-28T11:02:22.177Z,13.77
2022-09-28T11:03:22.082Z,13.99
2022-09-28T11:04:22.112Z,14.24
2022-09-28T11:05:22.066Z,14.35
2022-09-28T11:06:22.034Z,14.32
2022-09-28T11:07:22.053Z,14.43
2022-09-28T11:08:22.023Z,14.53
2022-09-28T11:09:22.013Z,14.68
2022-09-28T11:10:21.986Z,14.75
2022-09-28T11:11:22.013Z,14.80
2022-09-28T11:12:21.976Z,14.72
2022-09-28T11:13:21.961Z,14.53
2022-09-28T11:14:21.939Z,14.46
2022-09-28T11:15:21.928Z,14.38
2022-09-28T11:16:21.972Z,14.19
2022-09-28T11:17:21.955Z,14.01
2022-09-28T11:18:21.904Z,13.92
2022-09-28T11:19:21.912Z,13.79
2022-09-28T11:20:27.069Z,13.74
2022-09-28T11:21:23.891Z,13.69
2022-09-28T11:22:21.867Z,13.63
2022-09-28T11:23:21.823Z,13.58
2022-09-28T11:24:22.132Z,13.49
2022-09-28T11:25:21.812Z,13.47
2022-09-28T11:26:21.777Z,13.47
2022-09-28T11:27:21.825Z,13.52
2022-09-28T11:28:21.741Z,13.59
2022-09-28T11:29:21.745Z,13.69
2022-09-28T11:30:21.760Z,13.80
2022-09-28T11:31:21.757Z,13.96
2022-09-28T11:32:21.696Z,14.07
2022-09-28T11:33:21.701Z,14.02
2022-09-28T11:34:31.089Z,13.95
2022-09-28T11:35:21.747Z,13.88
2022-09-28T11:36:21.638Z,13.74
2022-09-28T11:37:21.646Z,13.80
2022-09-28T11:38:21.616Z,13.88
2022-09-28T11:39:21.664Z,13.88
2022-09-28T11:40:21.654Z,13.91
2022-09-28T11:41:21.605Z,13.89
2022-09-28T11:42:21.573Z,13.98
2022-09-28T11:43:21.571Z,13.94
2022-09-28T11:44:21.593Z,13.87
2022-09-28T11:45:21.548Z,13.76
2022-09-28T11:46:21.531Z,13.63
2022-09-28T11:47:21.507Z,13.58
2022-09-28T11:48:21.532Z,13.59
2022-09-28T11:49:21.483Z,13.58
2022-09-28T11:50:24.457Z,13.61
2022-09-28T11:51:21.455Z,13.61
2022-09-28T11:52:21.450Z,13.52
2022-09-28T11:53:21.456Z,13.52
2022-09-28T11:54:21.493Z,13.44
2022-09-28T11:55:21.441Z,13.51
2022-09-28T11:56:21.401Z,13.49
2022-09-28T11:57:21.427Z,13.47
2022-09-28T11:58:21.358Z,13.41
2022-09-28T11:59:21.362Z,13.38
2022-09-28T12:00:21.371Z,13.27
2022-09-28T12:01:21.331Z,13.24
2022-09-28T12:02:21.385Z,13.21
2022-09-28T12:03:21.461Z,13.18
2022-09-28T12:04:21.308Z,13.09
2022-09-28T12:05:21.340Z,13.06
2022-09-28T12:06:21.251Z,13.06
2022-09-28T12:07:21.305Z,13.09
2022-09-28T12:08:21.220Z,13.12
2022-09-28T12:09:21.210Z,13.03
2022-09-28T12:10:21.222Z,12.99
2022-09-28T12:11:21.181Z,12.88
2022-09-28T12:12:21.199Z,12.84
2022-09-28T12:13:21.191Z,12.87
2022-09-28T12:14:21.146Z,12.88
2022-09-28T12:15:21.173Z,12.85
2022-09-28T12:16:45.665Z,12.87
2022-09-28T12:17:21.212Z,12.92
2022-09-28T12:18:21.090Z,12.99
2022-09-28T12:19:21.141Z,12.99
2022-09-28T12:20:21.077Z,13.07
2022-09-28T12:21:21.043Z,13.15
2022-09-28T12:22:21.046Z,13.18
2022-09-28T12:23:21.021Z,13.20
2022-09-28T12:24:21.005Z,13.27
2022-09-28T12:25:21.019Z,13.27
2022-09-28T12:26:21.008Z,13.32
2022-09-28T12:27:19.996Z,13.27
2022-09-28T12:28:20.942Z,13.30
2022-09-28T12:29:20.980Z,13.30
2022-09-28T12:30:20.918Z,13.33
2022-09-28T12:31:21.006Z,13.33
2022-09-28T12:32:20.896Z,13.41
2022-09-28T12:33:20.883Z,13.47
2022-09-28T12:34:20.876Z,13.51
2022-09-28T12:35:20.875Z,13.51
2022-09-28T12:36:20.884Z,13.56
2022-09-28T12:37:20.858Z,13.58
2022-09-28T12:38:20.817Z,13.61
2022-09-28T12:39:35.669Z,13.63
2022-09-28T12:40:20.833Z,13.67
2022-09-28T12:41:20.764Z,13.71
2022-09-28T12:42:20.764Z,13.71
2022-09-28T12:43:20.776Z,13.71
2022-09-28T12:44:20.748Z,13.76
2022-09-28T12:45:20.713Z,13.77
2022-09-28T12:46:20.773Z,13.79
2022-09-28T12:47:20.698Z,13.84
2022-09-28T12:48:20.733Z,13.81
2022-09-28T12:50:38.022Z,13.92
2022-09-28T12:51:20.650Z,14.01
2022-09-28T12:52:20.705Z,14.10
2022-09-28T12:53:20.605Z,14.21
2022-09-28T12:54:20.597Z,14.29
2022-09-28T12:55:20.604Z,14.37
2022-09-28T12:56:21.674Z,14.42
2022-09-28T12:57:20.578Z,14.42
2022-09-28T12:58:20.574Z,14.32
2022-09-28T12:59:20.530Z,14.27
2022-09-28T13:00:20.549Z,14.27
2022-09-28T13:01:20.626Z,14.25
2022-09-28T13:02:20.616Z,14.29
2022-09-28T13:03:20.474Z,14.34
2022-09-28T13:04:20.476Z,14.35
2022-09-28T13:05:20.789Z,14.29
2022-09-28T13:06:20.503Z,14.21
2022-09-28T13:07:20.438Z,14.16
2022-09-28T13:08:20.419Z,14.12
2022-09-28T13:09:20.464Z,14.09
2022-09-28T13:10:20.419Z,14.01
2022-09-28T13:11:20.375Z,13.84
2022-09-28T13:12:20.688Z,13.77
2022-09-28T13:13:20.364Z,13.67
2022-09-28T13:14:20.343Z,13.62
2022-09-28T13:15:20.328Z,13.52
2022-09-28T13:16:20.345Z,13.47
2022-09-28T13:17:20.480Z,13.51
2022-09-28T13:18:20.282Z,13.49
2022-09-28T13:19:20.289Z,13.51
2022-09-28T13:20:20.697Z,13.54
2022-09-28T13:21:20.281Z,13.56
2022-09-28T13:22:20.228Z,13.58
2022-09-28T13:23:20.261Z,13.58
2022-09-28T13:24:32.222Z,13.62
2022-09-28T13:25:20.218Z,13.69
2022-09-28T13:26:20.173Z,13.71
2022-09-28T13:27:21.678Z,13.76
2022-09-28T13:28:22.067Z,13.73
2022-09-28T13:29:20.250Z,13.76
2022-09-28T13:30:20.138Z,13.77
2022-09-28T13:31:21.689Z,13.81
2022-09-28T13:32:21.711Z,13.77
2022-09-28T13:33:20.080Z,13.74
2022-09-28T13:34:20.278Z,13.77
2022-09-28T13:35:20.794Z,13.74
2022-09-28T13:36:20.032Z,13.74
2022-09-28T13:37:20.094Z,13.69
2022-09-28T13:38:20.017Z,13.67
2022-09-28T13:39:20.077Z,13.59
2022-09-28T13:40:20.067Z,13.56
2022-09-28T13:41:19.971Z,13.61
2022-09-28T13:42:20.066Z,13.65
2022-09-28T13:43:19.984Z,13.67
2022-09-28T13:44:19.974Z,13.65
2022-09-28T13:45:19.936Z,13.59
2022-09-28T13:46:20.006Z,13.55
2022-09-28T13:47:21.068Z,13.55
2022-09-28T13:48:20.481Z,13.54
2022-09-28T13:49:19.919Z,13.49
2022-09-28T13:50:19.877Z,13.47
2022-09-28T13:51:19.858Z,13.47
2022-09-28T13:52:21.806Z,13.52
2022-09-28T13:53:19.941Z,13.59
2022-09-28T13:54:19.943Z,13.63
2022-09-28T13:55:19.788Z,13.67
2022-09-28T13:56:19.795Z,13.71
2022-09-28T13:57:19.789Z,13.67
2022-09-28T13:58:19.757Z,13.70
2022-09-28T13:59:19.775Z,13.73
2022-09-28T14:00:19.752Z,13.71
2022-09-28T14:01:19.755Z,13.74
2022-09-28T14:02:19.780Z,13.71
2022-09-28T14:03:19.674Z,13.77
2022-09-28T14:04:19.838Z,13.77
2022-09-28T14:05:19.684Z,13.80
2022-09-28T14:06:19.956Z,13.87
2022-09-28T14:07:19.670Z,13.88
2022-09-28T14:08:19.738Z,13.89
2022-09-28T14:09:19.705Z,13.98
2022-09-28T14:10:19.928Z,14.06
2022-09-28T14:11:19.584Z,14.13
2022-09-28T14:12:19.842Z,14.20
2022-09-28T14:13:20.110Z,14.24
2022-09-28T14:14:19.591Z,14.25
2022-09-28T14:15:19.515Z,14.20
2022-09-28T14:16:40.548Z,14.20
2022-09-28T14:17:31.338Z,14.20
2022-09-28T14:19:59.718Z,14.14
2022-09-28T14:20:56.451Z,14.13
2022-09-28T14:21:56.460Z,14.04
2022-09-28T14:24:40.421Z,14.01
2022-09-28T14:25:41.357Z,13.98
2022-09-28T14:26:41.334Z,13.96
2022-09-28T14:27:41.309Z,13.99
2022-09-28T14:28:41.287Z,14.02
2022-09-28T14:29:41.276Z,14.09
2022-09-28T14:30:41.302Z,14.16